Pangborn Memorial Airport
KEAT : now visible

Airfield :











YOU CAN JOIN US ON...

 
LOGIN :

Register | Disclaimer

   EN    FR    IT 

 









Legend :    VFR   Marginal VFR   IFR   Intensive IFR   Very Intensive IFR
Visi :
Ceiling :
>= 8 km
>= 3000ft
5 to 8 km
1000 to 3000 ft
1500m to 5 km
500 to 1000 ft
800 to 1500m
200 to 500 ft
< 800m
< 200 ft
Symbols :   Thunderstorms  Fog  Heavy snow  Heavy precipitations  Wind > 20 kt







- Airport Elevation : 1249 ft


KEAT - Pangborn Memorial

CURRENT METAR :
  • 200855Z AUTO 29009KT 10SM SCT100 16/07 A2995 RMK AO2 SLP137 T01560072 51000 $

EXPIRED METARs :
  • 200755Z AUTO 30009KT 10SM BKN100 16/07 A2995 RMK AO2 SLP137 T01610072 402280100 $
  • 200655Z AUTO 29009KT 10SM BKN100 17/07 A2995 RMK AO2 SLP138 T01670067 $

TAF KEAT
Valid from the 20 at 06:00 until the 21 at 06:00 UTC


200536Z 2006/2106 30008KT P6SM OVC120
FM201000 30006KT P6SM OVC080
FM201300 30006KT P6SM SCT200
FM202300 30009KT P6SM FEW250
No reported NOTAMs for that airfield.



MET'MAP, your aeronautical weather chart ! - Copyright ORBIFLY December 2007 - Disclaimer

ORBIFLY MET'MAP TEAM :

Programming & Development : Alexandra Zaïnal
Concept & Development : Baudouin d'Aumeries
Co-Development & Prog : Marc-Olivier Méhu
Technical & hardware support : Manuel Goepfert

Contact : metmap@orbifly.com




SOURCES & CREDITS :

   NOAA       Earth
Advisory